Time;durP1;ratioP1;P1;durP2;ratioP2;P2;SDS_P1;SDS_P2;PMS_P1;PMS_P2;Temp;Humidity;BMP_temperature;BMP_pressure;BME280_temperature;BME280_humidity;BME280_pressure;Samples;Min_cycle;Max_cycle;Signal;HPM_P1;HPM_P2
2023/04/23 00:00:56;;;;;;;2.47;2.23;;;;;;;;;;6216540;23;20437;-70
2023/04/23 00:03:22;;;;;;;2.43;2.30;;;;;;;;;;6216891;23;20403;-69
2023/04/23 00:05:50;;;;;;;2.30;2.20;;;;;;;;;;6216535;23;20759;-70
2023/04/23 00:08:18;;;;;;;4.40;2.97;;;;;;;;;;6216610;23;20403;-72
2023/04/23 00:10:44;;;;;;;3.63;3.43;;;;;;;;;;6216725;23;20434;-67
2023/04/23 00:13:10;;;;;;;3.03;2.90;;;;;;;;;;6216879;23;20453;-68
2023/04/23 00:15:36;;;;;;;2.60;2.40;;;;;;;;;;6216782;23;20379;-69
2023/04/23 00:18:02;;;;;;;2.57;2.47;;;;;;;;;;6216414;23;20830;-70
2023/04/23 00:20:28;;;;;;;2.07;1.97;;;;;;;;;;6216400;23;20382;-71
2023/04/23 00:22:54;;;;;;;1.63;1.63;;;;;;;;;;6216299;23;20387;-71
2023/04/23 00:25:20;;;;;;;2.63;2.03;;;;;;;;;;6216613;23;20422;-67
2023/04/23 00:27:47;;;;;;;1.80;1.80;;;;;;;;;;6216728;23;20853;-70
2023/04/23 00:30:13;;;;;;;3.20;1.77;;;;;;;;;;6216688;23;20437;-66
2023/04/23 00:32:39;;;;;;;3.80;1.97;;;;;;;;;;6216321;23;20429;-72
2023/04/23 00:35:06;;;;;;;2.53;2.33;;;;;;;;;;6214689;23;20453;-67
2023/04/23 00:37:32;;;;;;;2.93;2.10;;;;;;;;;;6216327;23;20716;-67
2023/04/23 00:39:58;;;;;;;1.40;1.40;;;;;;;;;;6216234;23;20375;-66
2023/04/23 00:42:24;;;;;;;2.83;2.63;;;;;;;;;;6216642;23;20378;-69
2023/04/23 00:44:50;;;;;;;2.10;2.00;;;;;;;;;;6216632;23;20390;-68
2023/04/23 00:47:16;;;;;;;2.73;2.53;;;;;;;;;;6216579;23;20438;-70
2023/04/23 00:49:42;;;;;;;1.80;1.80;;;;;;;;;;6216315;23;20453;-70
2023/04/23 00:52:08;;;;;;;2.20;1.93;;;;;;;;;;6216308;23;20473;-71
2023/04/23 00:54:34;;;;;;;4.00;2.60;;;;;;;;;;6216397;23;20434;-70
2023/04/23 00:57:00;;;;;;;2.30;2.00;;;;;;;;;;6215912;23;20379;-69
2023/04/23 00:59:27;;;;;;;1.93;1.43;;;;;;;;;;6216282;23;20371;-69
2023/04/23 01:01:53;;;;;;;3.83;2.50;;;;;;;;;;6216330;23;20395;-68
2023/04/23 01:04:21;;;;;;;1.60;1.60;;;;;;;;;;6216001;23;20462;-66
2023/04/23 01:06:47;;;;;;;3.67;1.83;;;;;;;;;;6216107;23;20415;-67
2023/04/23 01:09:14;;;;;;;1.53;1.53;;;;;;;;;;6215734;23;20466;-68
2023/04/23 01:11:42;;;;;;;1.87;1.77;;;;;;;;;;6216138;23;20512;-69
2023/04/23 01:14:08;;;;;;;1.33;1.33;;;;;;;;;;6215895;23;20375;-67
2023/04/23 01:16:35;;;;;;;3.43;1.70;;;;;;;;;;6215862;23;20383;-69
2023/04/23 01:19:01;;;;;;;1.17;1.17;;;;;;;;;;6216150;23;20379;-68
2023/04/23 01:21:28;;;;;;;1.93;1.20;;;;;;;;;;6216473;23;20371;-69
2023/04/23 01:23:54;;;;;;;1.63;1.40;;;;;;;;;;6215764;23;20383;-68
2023/04/23 01:26:22;;;;;;;2.10;1.33;;;;;;;;;;6216122;23;20376;-69
2023/04/23 01:28:48;;;;;;;1.13;1.03;;;;;;;;;;6215758;23;20411;-68
2023/04/23 01:31:14;;;;;;;1.30;1.20;;;;;;;;;;6215952;23;20442;-68
2023/04/23 01:33:40;;;;;;;0.80;0.80;;;;;;;;;;6216101;23;20371;-70
2023/04/23 01:36:07;;;;;;;0.87;0.87;;;;;;;;;;6216035;23;20757;-67
2023/04/23 01:38:35;;;;;;;0.80;0.80;;;;;;;;;;6215741;23;20375;-65
2023/04/23 01:41:01;;;;;;;0.80;0.80;;;;;;;;;;6216219;23;20738;-67
2023/04/23 01:43:27;;;;;;;1.07;1.07;;;;;;;;;;6215738;23;20434;-65
2023/04/23 01:45:54;;;;;;;1.00;1.00;;;;;;;;;;6215969;23;20410;-67
2023/04/23 01:48:20;;;;;;;1.10;1.10;;;;;;;;;;6216303;23;20422;-66
2023/04/23 01:50:46;;;;;;;3.73;0.80;;;;;;;;;;6215482;23;20422;-71
2023/04/23 01:53:12;;;;;;;0.80;0.80;;;;;;;;;;6215830;23;20406;-72
2023/04/23 01:55:38;;;;;;;1.10;1.10;;;;;;;;;;6215586;23;20375;-72
2023/04/23 01:58:04;;;;;;;0.70;0.70;;;;;;;;;;6215872;23;20385;-69
2023/04/23 02:00:30;;;;;;;0.80;0.80;;;;;;;;;;6215880;23;20477;-71
2023/04/23 02:02:56;;;;;;;0.97;0.97;;;;;;;;;;6216092;23;20833;-67
2023/04/23 02:05:23;;;;;;;1.33;0.80;;;;;;;;;;6215871;23;20462;-69
2023/04/23 02:07:50;;;;;;;0.77;0.77;;;;;;;;;;6215779;23;20382;-67
2023/04/23 02:10:17;;;;;;;3.37;3.17;;;;;;;;;;6215295;23;20436;-69
2023/04/23 02:12:44;;;;;;;1.70;1.60;;;;;;;;;;6215446;23;20429;-66
2023/04/23 02:15:11;;;;;;;3.27;3.00;;;;;;;;;;6216122;23;20371;-69
2023/04/23 02:17:38;;;;;;;0.70;0.70;;;;;;;;;;6189504;23;20699;-66
2023/04/23 02:20:05;;;;;;;1.20;1.20;;;;;;;;;;6215341;23;20462;-67
2023/04/23 02:22:31;;;;;;;0.63;0.63;;;;;;;;;;6215355;23;20375;-67
2023/04/23 02:24:58;;;;;;;4.83;0.50;;;;;;;;;;6215340;23;20864;-66
2023/04/23 02:30:27;;;;;;;0.53;0.53;;;;;;;;;;6215393;23;20869;-66
2023/04/23 02:32:53;;;;;;;0.90;0.90;;;;;;;;;;6215640;23;20383;-67
2023/04/23 02:35:20;;;;;;;0.90;0.90;;;;;;;;;;6215731;23;20387;-66
2023/04/23 02:37:46;;;;;;;0.40;0.40;;;;;;;;;;6215329;23;20375;-67
2023/04/23 02:40:12;;;;;;;0.63;0.63;;;;;;;;;;6215652;23;20424;-66
2023/04/23 02:42:38;;;;;;;0.60;0.60;;;;;;;;;;6215085;23;20442;-69
2023/04/23 02:45:04;;;;;;;0.40;0.40;;;;;;;;;;6215653;23;20787;-67
2023/04/23 02:47:30;;;;;;;0.53;0.53;;;;;;;;;;6215285;23;20367;-67
2023/04/23 02:49:57;;;;;;;0.47;0.47;;;;;;;;;;6215043;23;20418;-66
2023/04/23 02:52:23;;;;;;;0.53;0.53;;;;;;;;;;6215328;23;20685;-69
2023/04/23 02:54:48;;;;;;;0.50;0.50;;;;;;;;;;6215122;23;20889;-69
2023/04/23 02:57:15;;;;;;;0.67;0.67;;;;;;;;;;6215874;23;20379;-69
2023/04/23 02:59:41;;;;;;;2.00;0.70;;;;;;;;;;6215567;23;20597;-72
2023/04/23 03:02:07;;;;;;;1.03;1.03;;;;;;;;;;6215211;23;20379;-71
2023/04/23 03:04:33;;;;;;;0.70;0.70;;;;;;;;;;6215184;23;20374;-67
2023/04/23 03:06:59;;;;;;;0.83;0.83;;;;;;;;;;6215206;23;20397;-72
2023/04/23 03:09:25;;;;;;;0.97;0.97;;;;;;;;;;6215093;23;20374;-71
2023/04/23 03:11:51;;;;;;;0.60;0.60;;;;;;;;;;6215458;23;20430;-72
2023/04/23 03:14:17;;;;;;;0.70;0.70;;;;;;;;;;6215590;23;20374;-71
2023/04/23 03:16:43;;;;;;;0.40;0.40;;;;;;;;;;6215451;23;20379;-69
2023/04/23 03:19:08;;;;;;;1.10;0.63;;;;;;;;;;6215676;23;20449;-70
2023/04/23 03:21:34;;;;;;;0.70;0.70;;;;;;;;;;6215145;23;20425;-70
2023/04/23 03:24:00;;;;;;;0.60;0.57;;;;;;;;;;6215806;23;20417;-68
2023/04/23 03:26:26;;;;;;;0.70;0.70;;;;;;;;;;6215190;23;20852;-69
2023/04/23 03:28:52;;;;;;;0.90;0.60;;;;;;;;;;6215149;23;20363;-70
2023/04/23 03:31:18;;;;;;;0.50;0.50;;;;;;;;;;6215340;23;20438;-70
2023/04/23 03:33:44;;;;;;;0.50;0.50;;;;;;;;;;6216413;23;20379;-67
2023/04/23 03:36:10;;;;;;;2.03;0.70;;;;;;;;;;6217368;23;20387;-68
2023/04/23 03:38:36;;;;;;;0.63;0.63;;;;;;;;;;6216975;23;20458;-70
2023/04/23 03:41:02;;;;;;;0.67;0.67;;;;;;;;;;6217330;23;20415;-70
2023/04/23 03:43:28;;;;;;;2.00;0.80;;;;;;;;;;6216731;23;20573;-69
2023/04/23 03:45:54;;;;;;;1.00;1.00;;;;;;;;;;6217226;23;20387;-69
2023/04/23 03:48:20;;;;;;;0.67;0.67;;;;;;;;;;6216771;23;20386;-71
2023/04/23 03:50:46;;;;;;;0.50;0.50;;;;;;;;;;6217111;23;20453;-69
2023/04/23 03:53:12;;;;;;;0.60;0.60;;;;;;;;;;6217070;23;20375;-69
2023/04/23 03:55:38;;;;;;;0.50;0.50;;;;;;;;;;6216785;23;20455;-69
2023/04/23 03:58:04;;;;;;;0.63;0.63;;;;;;;;;;6217099;23;20374;-70
2023/04/23 04:00:30;;;;;;;1.40;1.30;;;;;;;;;;6216516;23;20375;-69
2023/04/23 04:02:56;;;;;;;1.03;0.60;;;;;;;;;;6216682;23;20470;-67
2023/04/23 04:05:22;;;;;;;0.60;0.60;;;;;;;;;;6216561;23;20796;-69
2023/04/23 04:07:48;;;;;;;1.67;0.60;;;;;;;;;;6216654;23;20371;-66
2023/04/23 04:10:14;;;;;;;0.67;0.67;;;;;;;;;;6216597;23;20792;-69
2023/04/23 04:12:41;;;;;;;0.50;0.50;;;;;;;;;;6216984;23;20379;-69
2023/04/23 04:15:07;;;;;;;0.60;0.60;;;;;;;;;;6216944;23;20421;-69
2023/04/23 04:17:34;;;;;;;1.27;0.67;;;;;;;;;;6216926;23;20774;-66
2023/04/23 04:20:00;;;;;;;4.27;3.20;;;;;;;;;;6216545;23;20399;-70
2023/04/23 04:22:26;;;;;;;1.10;1.10;;;;;;;;;;6216750;23;20425;-71
2023/04/23 04:24:53;;;;;;;0.70;0.70;;;;;;;;;;6216852;23;20410;-67
2023/04/23 04:27:19;;;;;;;0.70;0.70;;;;;;;;;;6216838;23;20888;-67
2023/04/23 04:29:45;;;;;;;0.97;0.63;;;;;;;;;;6216647;23;20379;-66
2023/04/23 04:32:12;;;;;;;0.67;0.67;;;;;;;;;;6216335;23;20382;-65
2023/04/23 04:34:38;;;;;;;0.50;0.50;;;;;;;;;;6216813;23;20376;-68
2023/04/23 04:37:04;;;;;;;0.60;0.50;;;;;;;;;;6216633;23;20387;-70
2023/04/23 04:39:30;;;;;;;2.43;0.50;;;;;;;;;;6216447;23;20471;-71
2023/04/23 04:41:58;;;;;;;1.70;0.67;;;;;;;;;;6217000;23;20806;-70
2023/04/23 04:44:24;;;;;;;0.70;0.70;;;;;;;;;;6215754;23;20484;-69
2023/04/23 04:49:56;;;;;;;0.70;0.60;;;;;;;;;;6216311;23;20401;-68
2023/04/23 04:52:22;;;;;;;1.17;0.60;;;;;;;;;;6216539;23;20387;-66
2023/04/23 04:54:48;;;;;;;0.60;0.60;;;;;;;;;;6216219;23;20371;-67
2023/04/23 04:57:14;;;;;;;0.53;0.53;;;;;;;;;;6216128;23;20841;-67
2023/04/23 04:59:40;;;;;;;0.53;0.53;;;;;;;;;;6216382;23;20761;-67
2023/04/23 05:02:06;;;;;;;0.70;0.70;;;;;;;;;;6216466;23;20383;-66
2023/04/23 05:04:32;;;;;;;0.40;0.40;;;;;;;;;;6216487;23;20912;-65
2023/04/23 05:06:58;;;;;;;0.83;0.83;;;;;;;;;;6216043;23;20780;-66
2023/04/23 05:09:24;;;;;;;1.10;0.60;;;;;;;;;;6216375;23;20385;-65
2023/04/23 05:11:50;;;;;;;0.57;0.57;;;;;;;;;;6190056;23;20907;-65
2023/04/23 05:14:16;;;;;;;2.57;0.97;;;;;;;;;;6216258;23;20421;-65
2023/04/23 05:16:42;;;;;;;0.87;0.60;;;;;;;;;;6216274;23;20736;-66
2023/04/23 05:19:08;;;;;;;0.50;0.43;;;;;;;;;;6216255;23;20378;-65
2023/04/23 05:21:34;;;;;;;0.90;0.90;;;;;;;;;;6215901;23;20528;-66
2023/04/23 05:24:00;;;;;;;1.73;1.63;;;;;;;;;;6216344;23;20371;-65
2023/04/23 05:26:26;;;;;;;1.90;1.50;;;;;;;;;;6216210;23;20386;-65
2023/04/23 05:28:52;;;;;;;0.50;0.50;;;;;;;;;;6216195;23;20447;-65
2023/04/23 05:31:19;;;;;;;0.50;0.50;;;;;;;;;;6215840;23;20919;-68
2023/04/23 05:33:45;;;;;;;1.93;0.53;;;;;;;;;;6189827;23;20379;-65
2023/04/23 05:36:11;;;;;;;1.07;1.07;;;;;;;;;;6215827;23;20383;-69
2023/04/23 05:38:38;;;;;;;0.70;0.70;;;;;;;;;;6216179;23;20383;-68
2023/04/23 05:41:04;;;;;;;0.50;0.50;;;;;;;;;;6215762;23;20375;-66
2023/04/23 05:43:29;;;;;;;0.80;0.80;;;;;;;;;;6215786;23;20434;-70
2023/04/23 05:45:55;;;;;;;0.70;0.70;;;;;;;;;;6215643;23;20462;-68
2023/04/23 05:48:22;;;;;;;0.50;0.50;;;;;;;;;;6215626;23;20367;-67
2023/04/23 05:50:48;;;;;;;0.50;0.50;;;;;;;;;;6215904;23;20454;-68
2023/04/23 05:53:14;;;;;;;0.47;0.47;;;;;;;;;;6215687;23;20716;-69
2023/04/23 05:55:40;;;;;;;0.40;0.40;;;;;;;;;;6215761;23;20413;-65
2023/04/23 05:58:06;;;;;;;0.60;0.60;;;;;;;;;;6215677;23;20901;-70
2023/04/23 06:00:34;;;;;;;0.70;0.57;;;;;;;;;;6215906;23;20692;-67
2023/04/23 06:03:00;;;;;;;0.60;0.60;;;;;;;;;;6215967;23;20376;-69
2023/04/23 06:05:26;;;;;;;0.60;0.60;;;;;;;;;;6216233;23;20385;-68
2023/04/23 06:07:52;;;;;;;0.70;0.70;;;;;;;;;;6215577;23;20820;-65
2023/04/23 06:10:18;;;;;;;1.53;0.70;;;;;;;;;;6214797;23;20899;-73
2023/04/23 06:12:44;;;;;;;0.50;0.50;;;;;;;;;;6215329;23;20378;-70
2023/04/23 06:15:10;;;;;;;1.13;0.60;;;;;;;;;;6215699;23;20375;-71
2023/04/23 06:17:37;;;;;;;0.60;0.60;;;;;;;;;;6215437;23;20371;-71
2023/04/23 06:20:04;;;;;;;0.60;0.60;;;;;;;;;;6213781;23;20803;-66
2023/04/23 06:22:30;;;;;;;0.60;0.60;;;;;;;;;;6215797;23;20402;-66
2023/04/23 06:24:56;;;;;;;0.60;0.60;;;;;;;;;;6215743;23;20367;-70
2023/04/23 06:27:22;;;;;;;0.40;0.40;;;;;;;;;;6215405;23;20373;-70
2023/04/23 06:29:48;;;;;;;0.60;0.60;;;;;;;;;;6215280;23;20421;-70
2023/04/23 06:32:14;;;;;;;0.57;0.57;;;;;;;;;;6215301;23;20391;-70
2023/04/23 06:34:40;;;;;;;0.60;0.60;;;;;;;;;;6215182;23;20422;-72
2023/04/23 06:37:07;;;;;;;0.60;0.60;;;;;;;;;;6215370;23;20739;-72
2023/04/23 06:39:33;;;;;;;0.63;0.63;;;;;;;;;;6215203;23;20705;-67
2023/04/23 06:42:00;;;;;;;0.50;0.50;;;;;;;;;;6215593;23;20375;-66
2023/04/23 06:44:26;;;;;;;0.37;0.37;;;;;;;;;;6215878;23;20434;-67
2023/04/23 06:46:52;;;;;;;0.70;0.70;;;;;;;;;;6215191;23;20418;-66
2023/04/23 06:49:18;;;;;;;0.63;0.63;;;;;;;;;;6215286;23;20912;-67
2023/04/23 06:51:44;;;;;;;0.70;0.67;;;;;;;;;;6215573;23;20467;-67
2023/04/23 06:54:10;;;;;;;0.80;0.80;;;;;;;;;;6215404;23;20375;-66
2023/04/23 06:56:36;;;;;;;1.10;1.10;;;;;;;;;;6214196;23;20939;-67
2023/04/23 06:59:02;;;;;;;0.77;0.70;;;;;;;;;;6215389;23;20758;-66
2023/04/23 07:01:28;;;;;;;1.70;1.67;;;;;;;;;;6215300;23;20712;-66
2023/04/23 07:03:54;;;;;;;3.60;3.40;;;;;;;;;;6215137;23;20452;-66
2023/04/23 07:06:20;;;;;;;0.80;0.80;;;;;;;;;;6214892;23;20854;-70
2023/04/23 07:08:46;;;;;;;1.03;1.03;;;;;;;;;;6216566;23;20367;-66
2023/04/23 07:11:12;;;;;;;1.90;0.63;;;;;;;;;;6217499;23;20434;-66
2023/04/23 07:13:38;;;;;;;0.93;0.77;;;;;;;;;;6217237;23;20716;-66
2023/04/23 07:16:04;;;;;;;0.63;0.63;;;;;;;;;;6217301;23;20397;-68
2023/04/23 07:18:31;;;;;;;0.50;0.50;;;;;;;;;;6217029;23;20371;-67
2023/04/23 07:20:57;;;;;;;0.60;0.60;;;;;;;;;;6217679;23;20379;-68
2023/04/23 07:23:23;;;;;;;0.63;0.63;;;;;;;;;;6217055;23;20371;-72
2023/04/23 07:25:49;;;;;;;0.80;0.80;;;;;;;;;;6217467;23;20379;-67
2023/04/23 07:28:15;;;;;;;0.73;0.73;;;;;;;;;;6217033;23;20375;-69
2023/04/23 07:30:41;;;;;;;0.70;0.70;;;;;;;;;;6216871;23;20489;-68
2023/04/23 07:33:07;;;;;;;2.53;1.07;;;;;;;;;;6217301;23;20387;-68
2023/04/23 07:35:33;;;;;;;0.80;0.80;;;;;;;;;;6217178;23;20695;-71
2023/04/23 07:37:59;;;;;;;2.20;0.90;;;;;;;;;;6217305;23;20386;-71
2023/04/23 07:40:25;;;;;;;0.87;0.70;;;;;;;;;;6216911;23;20773;-69
2023/04/23 07:42:51;;;;;;;1.23;1.23;;;;;;;;;;6216641;23;20518;-71
2023/04/23 07:45:18;;;;;;;0.73;0.73;;;;;;;;;;6217247;23;20382;-69
2023/04/23 07:47:45;;;;;;;1.00;1.00;;;;;;;;;;6217033;23;20375;-69
2023/04/23 07:50:11;;;;;;;1.00;1.00;;;;;;;;;;6216640;23;20959;-66
2023/04/23 07:52:37;;;;;;;0.77;0.77;;;;;;;;;;6216824;23;20510;-66
2023/04/23 07:55:03;;;;;;;1.00;1.00;;;;;;;;;;6214649;23;20411;-68
2023/04/23 07:57:29;;;;;;;0.53;0.53;;;;;;;;;;6217081;23;20379;-67
2023/04/23 07:59:55;;;;;;;3.50;1.60;;;;;;;;;;6217420;23;20441;-71
2023/04/23 08:02:24;;;;;;;1.53;0.80;;;;;;;;;;6216719;23;20818;-71
2023/04/23 08:04:50;;;;;;;0.87;0.87;;;;;;;;;;6217206;23;20375;-67
2023/04/23 08:07:16;;;;;;;0.70;0.70;;;;;;;;;;6216960;23;20389;-67
2023/04/23 08:09:42;;;;;;;2.60;1.07;;;;;;;;;;6216563;23;20372;-66
2023/04/23 08:12:08;;;;;;;0.77;0.77;;;;;;;;;;6216533;23;20533;-70
2023/04/23 08:14:34;;;;;;;0.73;0.73;;;;;;;;;;6216717;23;20727;-67
2023/04/23 08:17:00;;;;;;;0.83;0.83;;;;;;;;;;6217691;23;20389;-71
2023/04/23 08:19:30;;;;;;;0.90;0.90;;;;;;;;;;6216594;23;20458;-67
2023/04/23 08:21:56;;;;;;;1.00;1.00;;;;;;;;;;6216974;23;20466;-73
2023/04/23 08:24:22;;;;;;;5.00;0.90;;;;;;;;;;6216645;23;20375;-72
2023/04/23 08:26:48;;;;;;;1.20;1.10;;;;;;;;;;6216843;23;20949;-73
2023/04/23 08:29:14;;;;;;;0.70;0.70;;;;;;;;;;6217853;23;20406;-69
2023/04/23 08:31:41;;;;;;;0.83;0.83;;;;;;;;;;6216702;23;20434;-71
2023/04/23 08:34:07;;;;;;;1.00;1.00;;;;;;;;;;6216861;23;20406;-67
2023/04/23 08:36:33;;;;;;;0.90;0.90;;;;;;;;;;6216584;23;20789;-67
2023/04/23 08:39:02;;;;;;;4.40;0.90;;;;;;;;;;6216442;23;20462;-66
2023/04/23 08:41:33;;;;;;;0.87;0.70;;;;;;;;;;6216554;23;20406;-70
2023/04/23 08:44:01;;;;;;;0.87;0.87;;;;;;;;;;6216296;23;20596;-72
2023/04/23 08:46:29;;;;;;;1.07;0.83;;;;;;;;;;6214656;23;20927;-65
2023/04/23 08:48:58;;;;;;;0.80;0.80;;;;;;;;;;6215439;23;20864;-70
2023/04/23 08:51:25;;;;;;;0.93;0.93;;;;;;;;;;6216216;23;20435;-66
2023/04/23 08:53:53;;;;;;;0.90;0.90;;;;;;;;;;6216380;23;20415;-70
2023/04/23 08:56:20;;;;;;;0.73;0.73;;;;;;;;;;6216654;23;20386;-67
2023/04/23 08:58:46;;;;;;;1.80;1.10;;;;;;;;;;6216615;23;20458;-67
2023/04/23 09:01:13;;;;;;;0.87;0.77;;;;;;;;;;6216537;23;20406;-65
2023/04/23 09:03:39;;;;;;;0.60;0.60;;;;;;;;;;6216704;23;20671;-66
2023/04/23 09:06:05;;;;;;;0.70;0.70;;;;;;;;;;6216166;23;20414;-69
2023/04/23 09:08:31;;;;;;;0.80;0.80;;;;;;;;;;6216576;23;20384;-68
2023/04/23 09:11:00;;;;;;;0.67;0.63;;;;;;;;;;6216702;23;20430;-67
2023/04/23 09:13:26;;;;;;;0.70;0.50;;;;;;;;;;6216168;23;20371;-70
2023/04/23 09:15:52;;;;;;;0.97;0.97;;;;;;;;;;6216557;23;20387;-70
2023/04/23 09:18:19;;;;;;;0.90;0.90;;;;;;;;;;6216530;23;20379;-71
2023/04/23 09:20:45;;;;;;;1.10;1.10;;;;;;;;;;6215868;23;20377;-66
2023/04/23 09:23:14;;;;;;;0.57;0.57;;;;;;;;;;6215843;23;20865;-68
2023/04/23 09:25:40;;;;;;;1.00;1.00;;;;;;;;;;6216332;23;20478;-67
2023/04/23 09:28:09;;;;;;;0.70;0.70;;;;;;;;;;6216832;23;20405;-69
2023/04/23 09:30:39;;;;;;;0.50;0.50;;;;;;;;;;6215852;23;20862;-65
2023/04/23 09:33:05;;;;;;;0.60;0.60;;;;;;;;;;6215835;23;20385;-66
2023/04/23 09:35:34;;;;;;;0.70;0.70;;;;;;;;;;6189552;23;20395;-65
2023/04/23 09:38:04;;;;;;;0.70;0.70;;;;;;;;;;6216000;23;20394;-71
2023/04/23 09:40:30;;;;;;;0.73;0.73;;;;;;;;;;6215410;23;20449;-71
2023/04/23 09:42:56;;;;;;;0.80;0.80;;;;;;;;;;6215755;23;20448;-71
2023/04/23 09:45:24;;;;;;;0.50;0.50;;;;;;;;;;6215646;23;20372;-73
2023/04/23 09:47:52;;;;;;;1.50;1.50;;;;;;;;;;6215541;23;20391;-72
2023/04/23 09:50:19;;;;;;;4.37;4.17;;;;;;;;;;6215664;23;20431;-69
2023/04/23 09:52:45;;;;;;;2.87;2.77;;;;;;;;;;6215403;23;20376;-74
2023/04/23 09:55:12;;;;;;;2.63;2.60;;;;;;;;;;6216712;23;20461;-68
2023/04/23 09:57:40;;;;;;;0.93;0.93;;;;;;;;;;6215545;23;20403;-71
2023/04/23 10:00:17;;;;;;;1.03;1.03;;;;;;;;;;6215521;23;20382;-69
2023/04/23 10:02:48;;;;;;;1.17;1.17;;;;;;;;;;6215744;23;20413;-72
2023/04/23 10:05:15;;;;;;;0.50;0.50;;;;;;;;;;6215262;23;20666;-68
2023/04/23 10:07:41;;;;;;;0.40;0.40;;;;;;;;;;6215662;23;20520;-71
2023/04/23 10:10:07;;;;;;;0.60;0.60;;;;;;;;;;6215373;23;20367;-72
2023/04/23 10:12:33;;;;;;;2.30;2.10;;;;;;;;;;6215805;23;20437;-72
2023/04/23 10:14:59;;;;;;;2.10;2.00;;;;;;;;;;6216017;23;20378;-72
2023/04/23 10:17:25;;;;;;;0.70;0.70;;;;;;;;;;6213809;23;20395;-69
2023/04/23 10:19:51;;;;;;;1.40;1.40;;;;;;;;;;6215569;23;20371;-67
2023/04/23 10:22:18;;;;;;;2.47;2.47;;;;;;;;;;6215757;23;20433;-72
2023/04/23 10:24:45;;;;;;;7.10;6.57;;;;;;;;;;6215473;23;20371;-67
2023/04/23 10:27:14;;;;;;;5.97;5.67;;;;;;;;;;6215463;23;20467;-69
2023/04/23 10:29:41;;;;;;;3.50;3.40;;;;;;;;;;6215681;23;20378;-67
2023/04/23 10:32:07;;;;;;;3.23;2.97;;;;;;;;;;6215126;23;20528;-69
2023/04/23 10:34:33;;;;;;;1.57;1.57;;;;;;;;;;6215740;23;20382;-69
2023/04/23 10:40:12;;;;;;;4.30;3.37;;;;;;;;;;6215469;23;20367;-68
2023/04/23 10:42:39;;;;;;;7.73;6.97;;;;;;;;;;6215677;23;20429;-66
2023/04/23 10:45:15;;;;;;;5.17;4.73;;;;;;;;;;6217529;23;20815;-71
2023/04/23 10:47:42;;;;;;;1.60;1.50;;;;;;;;;;6217613;23;20375;-66
2023/04/23 10:50:18;;;;;;;2.20;2.10;;;;;;;;;;6217252;23;20379;-71
2023/04/23 10:52:47;;;;;;;2.03;1.17;;;;;;;;;;6217720;23;20621;-71
2023/04/23 10:55:16;;;;;;;1.10;1.10;;;;;;;;;;6217358;23;20373;-69
2023/04/23 10:57:59;;;;;;;5.87;5.50;;;;;;;;;;6217466;23;20783;-72
2023/04/23 11:00:26;;;;;;;0.97;0.90;;;;;;;;;;6217190;23;20421;-73
2023/04/23 11:02:52;;;;;;;1.33;0.93;;;;;;;;;;6217494;23;20394;-68
2023/04/23 11:05:18;;;;;;;0.60;0.60;;;;;;;;;;6217535;23;20385;-70
2023/04/23 11:08:02;;;;;;;0.77;0.77;;;;;;;;;;6217238;23;20433;-71
2023/04/23 11:10:28;;;;;;;0.57;0.57;;;;;;;;;;6217439;23;20517;-65
2023/04/23 11:12:55;;;;;;;0.40;0.40;;;;;;;;;;6217090;23;20853;-66
2023/04/23 11:15:21;;;;;;;0.60;0.60;;;;;;;;;;6217258;23;20371;-70
2023/04/23 11:17:47;;;;;;;0.80;0.80;;;;;;;;;;6217329;23;20413;-72
2023/04/23 11:20:15;;;;;;;1.80;1.70;;;;;;;;;;6216972;23;20371;-71
2023/04/23 11:22:59;;;;;;;1.50;1.40;;;;;;;;;;6217370;23;20156;-68
2023/04/23 11:25:26;;;;;;;0.70;0.70;;;;;;;;;;6217465;23;20371;-67
2023/04/23 11:27:53;;;;;;;2.00;0.70;;;;;;;;;;6217324;23;20386;-71
2023/04/23 11:30:23;;;;;;;1.27;1.00;;;;;;;;;;6217049;23;20786;-66
2023/04/23 11:32:49;;;;;;;0.50;0.50;;;;;;;;;;6216830;23;20441;-68
2023/04/23 11:35:19;;;;;;;2.67;0.67;;;;;;;;;;6216853;23;20374;-66
2023/04/23 11:37:47;;;;;;;0.60;0.60;;;;;;;;;;6217149;23;20760;-69
2023/04/23 11:40:17;;;;;;;1.93;0.47;;;;;;;;;;6217310;23;20383;-72
2023/04/23 11:42:45;;;;;;;1.00;1.00;;;;;;;;;;6216991;23;20367;-65
2023/04/23 11:45:37;;;;;;;0.60;0.60;;;;;;;;;;6216456;23;20826;-72
2023/04/23 11:48:04;;;;;;;0.60;0.60;;;;;;;;;;6211603;23;20392;-71
2023/04/23 11:50:31;;;;;;;1.07;0.90;;;;;;;;;;6216856;23;20442;-68
2023/04/23 11:52:57;;;;;;;4.60;0.97;;;;;;;;;;6217120;23;20379;-72
2023/04/23 11:55:24;;;;;;;5.33;1.00;;;;;;;;;;6217918;23;20386;-72
2023/04/23 11:57:51;;;;;;;1.93;1.80;;;;;;;;;;6216589;23;20383;-71
2023/04/23 12:00:18;;;;;;;2.10;0.77;;;;;;;;;;6217355;23;20908;-69
2023/04/23 12:02:55;;;;;;;1.20;1.20;;;;;;;;;;6216972;23;20380;-67
2023/04/23 12:05:35;;;;;;;1.20;1.00;;;;;;;;;;6216946;23;20473;-66
2023/04/23 12:08:11;;;;;;;1.40;1.27;;;;;;;;;;6216542;23;20387;-67
2023/04/23 12:10:48;;;;;;;2.80;2.67;;;;;;;;;;6216810;23;20434;-70
2023/04/23 12:13:15;;;;;;;1.63;1.23;;;;;;;;;;6216428;23;20672;-66
2023/04/23 12:15:49;;;;;;;2.00;1.90;;;;;;;;;;6216956;23;20780;-71
2023/04/23 12:18:15;;;;;;;4.53;4.13;;;;;;;;;;6216529;23;20899;-68
2023/04/23 12:20:41;;;;;;;2.63;2.40;;;;;;;;;;6216801;23;20387;-72
2023/04/23 12:23:07;;;;;;;2.37;2.17;;;;;;;;;;6216504;23;20845;-69
2023/04/23 12:25:33;;;;;;;2.93;2.00;;;;;;;;;;6216925;23;20375;-73
2023/04/23 12:28:00;;;;;;;1.23;1.07;;;;;;;;;;6216454;23;20379;-72
2023/04/23 12:30:33;;;;;;;3.93;1.27;;;;;;;;;;6216312;23;20447;-69
2023/04/23 12:32:59;;;;;;;1.00;1.00;;;;;;;;;;6216345;23;20380;-66
2023/04/23 12:35:41;;;;;;;1.30;1.20;;;;;;;;;;6216840;23;20379;-70
2023/04/23 12:38:07;;;;;;;0.97;0.80;;;;;;;;;;6216013;23;20378;-67
2023/04/23 12:40:33;;;;;;;1.30;1.03;;;;;;;;;;6216244;23;20435;-67
2023/04/23 12:42:59;;;;;;;1.10;0.73;;;;;;;;;;6216146;23;20431;-66
2023/04/23 12:45:25;;;;;;;0.67;0.67;;;;;;;;;;6216932;23;20899;-66
2023/04/23 12:47:51;;;;;;;1.40;0.77;;;;;;;;;;6216569;23;20711;-67
2023/04/23 12:50:17;;;;;;;0.83;0.83;;;;;;;;;;6214640;23;20462;-70
2023/04/23 12:52:43;;;;;;;0.80;0.80;;;;;;;;;;6216339;23;20378;-67
2023/04/23 12:55:09;;;;;;;0.73;0.73;;;;;;;;;;6216296;23;20379;-67
2023/04/23 12:57:35;;;;;;;1.17;0.73;;;;;;;;;;6217131;23;20450;-66
2023/04/23 13:00:02;;;;;;;0.80;0.80;;;;;;;;;;6216214;23;20379;-67
2023/04/23 13:02:28;;;;;;;0.90;0.90;;;;;;;;;;6216517;23;20367;-67
2023/04/23 13:04:59;;;;;;;2.83;0.73;;;;;;;;;;6216078;23;20704;-67
2023/04/23 13:07:25;;;;;;;1.50;0.60;;;;;;;;;;6215819;23;20367;-70
2023/04/23 13:09:51;;;;;;;1.10;0.70;;;;;;;;;;6216375;23;20445;-69
2023/04/23 13:12:17;;;;;;;1.77;1.20;;;;;;;;;;6216102;23;20764;-71
2023/04/23 13:14:43;;;;;;;1.33;0.90;;;;;;;;;;6216544;23;20371;-71
2023/04/23 13:17:09;;;;;;;1.10;0.77;;;;;;;;;;6216043;23;20376;-67
2023/04/23 13:19:38;;;;;;;1.40;1.40;;;;;;;;;;6216368;23;20393;-69
2023/04/23 13:22:04;;;;;;;1.57;1.33;;;;;;;;;;6216370;23;20378;-66
2023/04/23 13:24:30;;;;;;;1.63;0.80;;;;;;;;;;6216493;23;20375;-66
2023/04/23 13:26:56;;;;;;;1.57;0.60;;;;;;;;;;6216336;23;20371;-67
2023/04/23 13:29:23;;;;;;;2.20;0.87;;;;;;;;;;6215969;23;20956;-66
2023/04/23 13:31:49;;;;;;;0.87;0.87;;;;;;;;;;6216493;23;20905;-68
2023/04/23 13:34:15;;;;;;;0.90;0.90;;;;;;;;;;6215896;23;20868;-66
2023/04/23 13:36:41;;;;;;;1.03;0.93;;;;;;;;;;6216626;23;20376;-67
2023/04/23 13:39:07;;;;;;;0.70;0.70;;;;;;;;;;6216069;23;20849;-68
2023/04/23 13:41:34;;;;;;;1.27;1.27;;;;;;;;;;6214406;23;20462;-68
2023/04/23 13:44:00;;;;;;;0.70;0.70;;;;;;;;;;6216113;23;20434;-68
2023/04/23 13:46:26;;;;;;;1.77;0.93;;;;;;;;;;6216080;23;20383;-71
2023/04/23 13:48:55;;;;;;;4.00;1.17;;;;;;;;;;6216373;23;20378;-67
2023/04/23 13:51:21;;;;;;;2.00;1.60;;;;;;;;;;6215968;23;20525;-66
2023/04/23 13:53:47;;;;;;;0.90;0.90;;;;;;;;;;6216113;23;20399;-67
2023/04/23 13:56:13;;;;;;;1.50;0.90;;;;;;;;;;6215752;23;20441;-65
2023/04/23 13:58:45;;;;;;;1.50;1.50;;;;;;;;;;6215921;23;20386;-65
2023/04/23 14:01:13;;;;;;;1.47;1.03;;;;;;;;;;6215987;23;20381;-66
2023/04/23 14:03:39;;;;;;;1.97;0.90;;;;;;;;;;6215979;23;20421;-68
2023/04/23 14:06:05;;;;;;;1.67;1.60;;;;;;;;;;6215947;23;20470;-74
2023/04/23 14:08:31;;;;;;;2.40;1.50;;;;;;;;;;6215862;23;20368;-69
2023/04/23 14:10:57;;;;;;;1.17;1.07;;;;;;;;;;6215683;23;20622;-70
2023/04/23 14:13:23;;;;;;;0.80;0.80;;;;;;;;;;6215664;23;20399;-72
2023/04/23 14:15:49;;;;;;;1.47;0.80;;;;;;;;;;6215391;23;20826;-66
2023/04/23 14:18:15;;;;;;;0.73;0.73;;;;;;;;;;6213873;23;20445;-66
2023/04/23 14:20:41;;;;;;;1.43;0.73;;;;;;;;;;6215157;23;20845;-70
2023/04/23 14:23:26;;;;;;;1.40;0.80;;;;;;;;;;6213908;23;20383;-67
2023/04/23 14:25:57;;;;;;;1.37;1.27;;;;;;;;;;6189798;23;20450;-69
2023/04/23 14:28:26;;;;;;;2.37;1.13;;;;;;;;;;6215516;23;20394;-70
2023/04/23 14:30:56;;;;;;;2.87;1.10;;;;;;;;;;6215258;23;20419;-69
2023/04/23 14:33:23;;;;;;;6.40;1.63;;;;;;;;;;6216033;23;20382;-68
2023/04/23 14:35:49;;;;;;;5.00;1.40;;;;;;;;;;6215793;23;20662;-71
2023/04/23 14:38:15;;;;;;;1.47;1.40;;;;;;;;;;6215454;23;20385;-70
2023/04/23 14:40:41;;;;;;;1.30;1.10;;;;;;;;;;6215284;23;20425;-68
2023/04/23 14:43:07;;;;;;;7.40;1.10;;;;;;;;;;6215905;23;20473;-70
2023/04/23 14:45:33;;;;;;;0.73;0.70;;;;;;;;;;6215387;23;20782;-70
2023/04/23 14:47:59;;;;;;;0.70;0.70;;;;;;;;;;6215500;23;20372;-70
2023/04/23 14:50:27;;;;;;;1.07;1.07;;;;;;;;;;6215212;23;20411;-73